Time;durP1;ratioP1;P1;durP2;ratioP2;P2;SDS_P1;SDS_P2;PMS_P1;PMS_P2;Temp;Humidity;BMP_temperature;BMP_pressure;BME280_temperature;BME280_humidity;BME280_pressure;Samples;Min_cycle;Max_cycle;Signal;HPM_P1;HPM_P2
2023/03/15 00:01:07;;;;;;;0.00;0.00;;;7.70;99.90;;;;;;5113466;28;20073;-77
2023/03/15 00:03:36;;;;;;;0.00;0.00;;;;;;;;;;5110428;28;20019;-77
2023/03/15 00:06:05;;;;;;;0.00;0.00;;;8.30;99.90;;;;;;5110610;28;20043;-76
2023/03/15 00:08:33;;;;;;;0.10;0.10;;;;;;;;;;5109360;28;20028;-76
2023/03/15 00:10:59;;;;;;;0.10;0.10;;;7.80;99.90;;;;;;5091958;28;20035;-77
2023/03/15 00:13:25;;;;;;;0.03;0.03;;;;;;;;;;5085362;28;20217;-76
2023/03/15 00:15:55;;;;;;;0.03;0.03;;;7.80;99.90;;;;;;5086231;28;20031;-76
2023/03/15 00:18:21;;;;;;;0.00;0.00;;;4.50;99.90;;;;;;5105630;28;20232;-77
2023/03/15 00:20:47;;;;;;;0.10;0.10;;;7.80;99.90;;;;;;5104977;28;20028;-77
2023/03/15 00:23:14;;;;;;;0.10;0.10;;;7.80;99.90;;;;;;5106847;28;20031;-77
2023/03/15 00:25:40;;;;;;;0.10;0.10;;;;;;;;;;5082805;28;20443;-77
2023/03/15 00:28:06;;;;;;;0.00;0.00;;;7.00;99.90;;;;;;5099431;28;20280;-76
2023/03/15 00:30:32;;;;;;;0.10;0.10;;;7.80;99.90;;;;;;5098955;28;20024;-76
2023/03/15 00:32:58;;;;;;;0.22;0.22;;;7.80;99.90;;;;;;5099636;28;20087;-77
2023/03/15 00:35:24;;;;;;;0.05;0.05;;;7.80;99.90;;;;;;5099082;28;20115;-76
2023/03/15 00:37:55;;;;;;;0.10;0.10;;;7.70;99.90;;;;;;5099285;28;20015;-77
2023/03/15 00:40:23;;;;;;;0.05;0.05;;;7.70;99.90;;;;;;5100034;28;20051;-77
2023/03/15 00:42:49;;;;;;;0.00;0.00;;;7.70;99.90;;;;;;5103516;28;20019;-77
2023/03/15 00:45:17;;;;;;;0.10;0.10;;;7.70;99.90;;;;;;5103717;28;20211;-76
2023/03/15 00:47:51;;;;;;;0.10;0.10;;;9.10;99.90;;;;;;5085728;28;20019;-77
2023/03/15 00:50:17;;;;;;;0.10;0.10;;;9.20;99.90;;;;;;5104682;28;20050;-77
2023/03/15 00:52:43;;;;;;;0.10;0.10;;;;;;;;;;5104341;28;20239;-76
2023/03/15 00:55:14;;;;;;;0.00;0.00;;;7.70;99.90;;;;;;5104819;28;20035;-77
2023/03/15 00:57:42;;;;;;;0.08;0.08;;;7.70;99.90;;;;;;5103154;28;20032;-77
2023/03/15 01:00:23;;;;;;;0.00;0.00;;;7.70;99.90;;;;;;5104607;28;20161;-76
2023/03/15 01:02:55;;;;;;;0.00;0.00;;;7.70;99.90;;;;;;5085488;28;20150;-77
2023/03/15 01:05:22;;;;;;;0.00;0.00;;;7.70;99.90;;;;;;5103846;28;20107;-77
2023/03/15 01:07:48;;;;;;;10.65;4.30;;;;;;;;;;5104378;28;20263;-77
2023/03/15 01:10:15;;;;;;;0.00;0.00;;;7.70;99.90;;;;;;5104348;28;20403;-76
2023/03/15 01:12:41;;;;;;;0.00;0.00;;;7.70;99.90;;;;;;5104257;28;20023;-77
2023/03/15 01:15:10;;;;;;;0.00;0.00;;;7.80;99.90;;;;;;5085739;28;20231;-77
2023/03/15 01:17:36;;;;;;;0.00;0.00;;;7.70;99.90;;;;;;5103677;28;20055;-77
2023/03/15 01:20:04;;;;;;;0.00;0.00;;;10.90;99.90;;;;;;5103121;28;20628;-77
2023/03/15 01:22:30;;;;;;;0.00;0.00;;;7.80;99.90;;;;;;5102264;28;20550;-77
2023/03/15 01:24:55;;;;;;;0.10;0.10;;;9.40;99.90;;;;;;5105164;28;20102;-77
2023/03/15 01:27:21;;;;;;;0.10;0.10;;;;;;;;;;5092886;28;20065;-76
2023/03/15 01:29:54;;;;;;;0.10;0.10;;;7.90;99.90;;;;;;5125194;28;20036;-77
2023/03/15 01:32:22;;;;;;;0.10;0.10;;;7.90;99.90;;;;;;5124853;28;20023;-76
2023/03/15 01:34:48;;;;;;;0.00;0.00;;;;;;;;;;5108537;28;20024;-77
2023/03/15 01:37:15;;;;;;;0.00;0.00;;;7.90;99.90;;;;;;5126929;28;20030;-77
2023/03/15 01:39:41;;;;;;;0.00;0.00;;;7.80;99.90;;;;;;5128801;28;20031;-76
2023/03/15 01:42:08;;;;;;;0.10;0.10;;;7.80;99.90;;;;;;5121928;28;20231;-77
2023/03/15 01:44:59;;;;;;;0.00;0.00;;;7.90;99.90;;;;;;5102042;28;20737;-76
2023/03/15 01:47:27;;;;;;;0.10;0.10;;;7.90;99.90;;;;;;5104224;28;20530;-77
2023/03/15 01:50:07;;;;;;;0.00;0.00;;;7.90;99.90;;;;;;5086011;28;20036;-76
2023/03/15 01:52:37;;;;;;;0.00;0.00;;;7.50;99.90;;;;;;5103917;28;20035;-77
2023/03/15 01:55:15;;;;;;;0.10;0.10;;;7.80;99.90;;;;;;5103224;28;20219;-75
2023/03/15 01:57:46;;;;;;;0.10;0.10;;;7.70;99.90;;;;;;5104242;28;20073;-77
2023/03/15 02:00:14;;;;;;;0.10;0.10;;;7.70;99.90;;;;;;5105509;28;20020;-76
2023/03/15 02:02:48;;;;;;;0.00;0.00;;;7.70;99.90;;;;;;5103140;28;20044;-76
2023/03/15 02:05:27;;;;;;;0.00;0.00;;;7.60;99.90;;;;;;5104907;28;20031;-75
2023/03/15 02:07:54;;;;;;;0.10;0.10;;;7.80;99.90;;;;;;5104281;28;20044;-77
2023/03/15 02:10:34;;;;;;;0.00;0.00;;;7.70;99.90;;;;;;5105122;28;20032;-76
2023/03/15 02:13:00;;;;;;;0.00;0.00;;;;;;;;;;5103954;28;20043;-76
2023/03/15 02:15:26;;;;;;;0.10;0.10;;;;;;;;;;5104525;28;20075;-76
2023/03/15 02:17:52;;;;;;;0.10;0.10;;;;;;;;;;5104581;28;20137;-76
2023/03/15 02:20:47;;;;;;;0.10;0.10;;;7.90;99.90;;;;;;5103824;28;20111;-76
2023/03/15 02:23:16;;;;;;;0.52;0.52;;;7.90;99.90;;;;;;5021232;28;20417;-77
2023/03/15 02:25:57;;;;;;;0.10;0.10;;;7.90;99.90;;;;;;5021905;28;20535;-76
2023/03/15 02:28:23;;;;;;;0.00;0.00;;;8.00;99.90;;;;;;5021241;28;20081;-77
2023/03/15 02:30:49;;;;;;;0.00;0.00;;;8.00;99.90;;;;;;5021879;28;20597;-77
2023/03/15 02:33:25;;;;;;;3.63;2.83;;;7.90;99.90;;;;;;5022547;28;20021;-76
2023/03/15 02:35:51;;;;;;;0.00;0.00;;;7.90;99.90;;;;;;5004767;28;20037;-77
2023/03/15 02:38:17;;;;;;;0.10;0.10;;;7.80;99.90;;;;;;5004129;28;20022;-76
2023/03/15 02:40:45;;;;;;;0.10;0.10;;;7.80;99.90;;;;;;5019879;28;20041;-76
2023/03/15 02:43:18;;;;;;;0.10;0.10;;;7.70;99.90;;;;;;5020294;28;20455;-77
2023/03/15 02:45:47;;;;;;;0.00;0.00;;;7.70;99.90;;;;;;5020171;28;20048;-76
2023/03/15 02:48:13;;;;;;;0.10;0.10;;;7.70;99.90;;;;;;5021545;28;20025;-77
2023/03/15 02:50:42;;;;;;;0.00;0.00;;;7.70;99.90;;;;;;5022992;28;20140;-77
2023/03/15 02:53:08;;;;;;;0.10;0.10;;;;;;;;;;5022021;28;20103;-76
2023/03/15 02:55:34;;;;;;;0.00;0.00;;;7.80;99.90;;;;;;5022618;28;20053;-75
2023/03/15 02:58:01;;;;;;;0.00;0.00;;;7.80;99.90;;;;;;5022731;28;20072;-77
2023/03/15 03:00:27;;;;;;;0.00;0.00;;;7.70;99.90;;;;;;5069599;28;20065;-76
2023/03/15 03:02:55;;;;;;;0.08;0.08;;;7.80;99.90;;;;;;5105174;28;20514;-76
2023/03/15 03:05:24;;;;;;;0.00;0.00;;;;;;;;;;5103927;28;20020;-76
2023/03/15 03:07:51;;;;;;;0.00;0.00;;;7.80;99.90;;;;;;5105732;28;20047;-76
2023/03/15 03:10:19;;;;;;;0.00;0.00;;;7.80;99.90;;;;;;5103547;28;20494;-76
2023/03/15 03:12:46;;;;;;;0.00;0.00;;;;;;;;;;5105914;28;20489;-77
2023/03/15 03:15:12;;;;;;;0.10;0.10;;;;;;;;;;5104344;28;20032;-76
2023/03/15 03:17:38;;;;;;;0.00;0.00;;;7.70;99.90;;;;;;5086468;28;20019;-77
2023/03/15 03:20:08;;;;;;;0.00;0.00;;;8.70;99.90;;;;;;5105261;28;20092;-77
2023/03/15 03:22:35;;;;;;;0.00;0.00;;;7.70;99.90;;;;;;5086328;28;20518;-76
2023/03/15 03:25:02;;;;;;;0.10;0.10;;;;;;;;;;5086221;28;20027;-77
2023/03/15 03:27:28;;;;;;;0.10;0.10;;;10.30;99.90;;;;;;5106556;28;20543;-76
2023/03/15 03:29:54;;;;;;;0.00;0.00;;;7.80;99.90;;;;;;5109147;28;20225;-77
2023/03/15 03:32:20;;;;;;;0.10;0.10;;;7.70;99.90;;;;;;5090001;28;20031;-76
2023/03/15 03:34:48;;;;;;;0.10;0.10;;;7.70;99.90;;;;;;5106104;28;20027;-76
2023/03/15 03:37:18;;;;;;;0.00;0.00;;;7.70;99.90;;;;;;5105672;28;20024;-76
2023/03/15 03:39:44;;;;;;;0.00;0.00;;;7.70;99.90;;;;;;5088789;28;20028;-77
2023/03/15 03:42:10;;;;;;;0.05;0.05;;;8.40;99.90;;;;;;5107119;28;20120;-75
2023/03/15 03:44:37;;;;;;;0.00;0.00;;;7.60;99.90;;;;;;5109934;28;20034;-76
2023/03/15 03:47:03;;;;;;;0.03;0.03;;;7.60;99.90;;;;;;5112033;28;20046;-76
2023/03/15 03:49:29;;;;;;;0.03;0.03;;;7.50;99.90;;;;;;5109588;28;20027;-76
2023/03/15 03:51:54;;;;;;;0.00;0.00;;;7.50;99.90;;;;;;5108057;28;20049;-76
2023/03/15 03:54:26;;;;;;;0.10;0.10;;;7.50;99.90;;;;;;5105266;28;20039;-76
2023/03/15 03:56:58;;;;;;;0.10;0.10;;;8.10;99.90;;;;;;5085621;28;20061;-76
2023/03/15 03:59:24;;;;;;;0.00;0.00;;;7.40;99.90;;;;;;5109440;28;20093;-76
2023/03/15 04:01:50;;;;;;;0.00;0.00;;;7.40;99.90;;;;;;5107264;28;20020;-76
2023/03/15 04:04:16;;;;;;;0.00;0.00;;;7.40;99.90;;;;;;5091107;28;20080;-76
2023/03/15 04:06:44;;;;;;;0.10;0.10;;;7.50;99.90;;;;;;5087516;28;20258;-76
2023/03/15 04:09:14;;;;;;;0.00;0.00;;;7.50;99.90;;;;;;5108369;28;20059;-76
2023/03/15 04:11:43;;;;;;;0.03;0.03;;;7.30;99.90;;;;;;5107330;28;20042;-77
2023/03/15 04:14:11;;;;;;;0.10;0.10;;;7.50;99.90;;;;;;5089575;28;20058;-76
2023/03/15 04:16:37;;;;;;;0.10;0.10;;;7.50;99.90;;;;;;5110014;28;20023;-76
2023/03/15 04:19:03;;;;;;;0.00;0.00;;;7.50;99.90;;;;;;5112308;28;20267;-76
2023/03/15 04:21:32;;;;;;;0.10;0.10;;;4.50;99.90;;;;;;5116318;28;20536;-77
2023/03/15 04:23:59;;;;;;;0.10;0.10;;;7.40;99.90;;;;;;5116362;28;20028;-76
2023/03/15 04:26:28;;;;;;;0.03;0.03;;;5.50;99.90;;;;;;5117513;28;20024;-77
2023/03/15 04:28:56;;;;;;;0.00;0.00;;;7.40;99.90;;;;;;5089072;28;20418;-76
2023/03/15 04:31:26;;;;;;;0.08;0.08;;;7.30;99.90;;;;;;5101899;28;20028;-76
2023/03/15 04:33:56;;;;;;;0.00;0.00;;;7.30;99.90;;;;;;5102393;28;20016;-77
2023/03/15 04:36:22;;;;;;;0.65;0.65;;;7.30;99.90;;;;;;5103524;28;20019;-76
2023/03/15 04:39:02;;;;;;;0.10;0.10;;;7.30;99.90;;;;;;5102938;28;20105;-76
2023/03/15 04:41:27;;;;;;;0.10;0.10;;;7.50;99.90;;;;;;5103785;28;20479;-76
2023/03/15 04:43:56;;;;;;;0.00;0.00;;;4.80;99.90;;;;;;5105446;28;20077;-76
2023/03/15 04:46:22;;;;;;;0.00;0.00;;;7.20;99.90;;;;;;5088855;28;20100;-76
2023/03/15 04:48:48;;;;;;;0.00;0.00;;;7.20;99.90;;;;;;5107296;28;20634;-77
2023/03/15 04:51:14;;;;;;;0.00;0.00;;;;;;;;;;5106000;28;20027;-76
2023/03/15 04:53:39;;;;;;;0.08;0.08;;;7.20;99.90;;;;;;5105408;28;20059;-76
2023/03/15 04:56:05;;;;;;;0.35;0.35;;;7.70;99.90;;;;;;5106862;28;20024;-76
2023/03/15 04:58:31;;;;;;;0.08;0.08;;;7.20;99.90;;;;;;5106599;28;20016;-76
2023/03/15 05:00:57;;;;;;;0.00;0.00;;;;;;;;;;5106015;28;20032;-76
2023/03/15 05:03:23;;;;;;;0.00;0.00;;;6.60;99.90;;;;;;5105717;28;20057;-76
2023/03/15 05:05:52;;;;;;;0.00;0.00;;;7.20;99.90;;;;;;5103202;28;20118;-76
2023/03/15 05:08:17;;;;;;;0.00;0.00;;;7.10;99.90;;;;;;5105085;28;20686;-76
2023/03/15 05:10:44;;;;;;;0.00;0.00;;;7.10;99.90;;;;;;5088516;28;20026;-76
2023/03/15 05:13:10;;;;;;;0.00;0.00;;;;;;;;;;5107406;28;20543;-76
2023/03/15 05:15:40;;;;;;;0.00;0.00;;;7.10;99.90;;;;;;5087676;28;20095;-76
2023/03/15 05:18:13;;;;;;;0.03;0.03;;;6.70;99.90;;;;;;5103939;28;20316;-77
2023/03/15 05:20:40;;;;;;;0.10;0.10;;;7.10;99.90;;;;;;5069517;28;20032;-76
2023/03/15 05:23:05;;;;;;;0.00;0.00;;;7.10;99.90;;;;;;5103406;28;20019;-77
2023/03/15 05:25:31;;;;;;;0.00;0.00;;;7.10;99.90;;;;;;5104092;28;20586;-76
2023/03/15 05:27:57;;;;;;;0.00;0.00;;;7.10;99.90;;;;;;5108779;28;20051;-76
2023/03/15 05:30:23;;;;;;;0.10;0.10;;;7.10;99.90;;;;;;5111904;28;20074;-76
2023/03/15 05:32:51;;;;;;;0.10;0.10;;;7.10;99.90;;;;;;5093591;28;20113;-76
2023/03/15 05:35:18;;;;;;;0.00;0.00;;;;;;;;;;5115757;28;20040;-76
2023/03/15 05:37:43;;;;;;;0.10;0.10;;;7.10;99.90;;;;;;5100759;28;20023;-75
2023/03/15 05:40:10;;;;;;;0.00;0.00;;;7.20;99.90;;;;;;5119483;28;20148;-76
2023/03/15 05:42:36;;;;;;;0.20;0.20;;;7.00;99.90;;;;;;5120042;28;20034;-76
2023/03/15 05:45:03;;;;;;;0.10;0.10;;;10.50;99.90;;;;;;5106299;28;20454;-77
2023/03/15 05:47:29;;;;;;;0.10;0.10;;;7.90;99.90;;;;;;5108457;28;20055;-76
2023/03/15 05:49:55;;;;;;;0.00;0.00;;;7.20;99.90;;;;;;5107808;28;20550;-77
2023/03/15 05:52:21;;;;;;;0.00;0.00;;;7.20;99.90;;;;;;5090089;28;20036;-77
2023/03/15 05:54:48;;;;;;;0.00;0.00;;;7.20;99.90;;;;;;5109937;28;20427;-76
2023/03/15 05:57:14;;;;;;;0.10;0.10;;;7.10;99.90;;;;;;5092148;28;20482;-76
2023/03/15 05:59:40;;;;;;;0.10;0.10;;;7.20;99.90;;;;;;5114710;28;20091;-77
2023/03/15 06:02:34;;;;;;;0.10;0.10;;;7.10;99.90;;;;;;5113453;28;20370;-77
2023/03/15 06:05:00;;;;;;;;;;;7.10;99.90;;;;;;5111984;28;20023;-77
2023/03/15 06:07:27;;;;;;;0.10;0.10;;;7.00;99.90;;;;;;5110343;28;19927;-77
2023/03/15 06:09:53;;;;;;;0.10;0.10;;;7.00;99.90;;;;;;5112677;28;20077;-76
2023/03/15 06:12:19;;;;;;;0.10;0.10;;;6.90;99.90;;;;;;5110732;28;20020;-76
2023/03/15 06:14:45;;;;;;;0.10;0.10;;;6.90;99.90;;;;;;5112826;28;20490;-76
2023/03/15 06:17:10;;;;;;;2.67;2.45;;;6.90;99.90;;;;;;5110741;28;20023;-77
2023/03/15 06:19:36;;;;;;;0.05;0.05;;;6.80;99.90;;;;;;5108556;28;20622;-76
2023/03/15 06:22:02;;;;;;;0.00;0.00;;;6.80;99.90;;;;;;5107933;28;20242;-76
2023/03/15 06:24:28;;;;;;;0.10;0.10;;;6.70;99.90;;;;;;5109351;28;20020;-76
2023/03/15 06:26:55;;;;;;;0.10;0.10;;;6.70;99.90;;;;;;5109390;28;20028;-76
2023/03/15 06:29:21;;;;;;;0.10;0.10;;;6.70;99.90;;;;;;5091208;28;20032;-76
2023/03/15 06:31:51;;;;;;;0.00;0.00;;;6.70;99.90;;;;;;5089688;28;20023;-77
2023/03/15 06:34:18;;;;;;;0.10;0.10;;;;;;;;;;5108387;28;20630;-76
2023/03/15 06:36:48;;;;;;;0.00;0.00;;;6.70;99.90;;;;;;5094530;28;20023;-77
2023/03/15 06:39:15;;;;;;;0.00;0.00;;;6.50;99.90;;;;;;5113834;28;20099;-77
2023/03/15 06:41:41;;;;;;;0.10;0.10;;;;;;;;;;5116151;28;20231;-76
2023/03/15 06:44:08;;;;;;;0.10;0.10;;;6.30;99.90;;;;;;5118122;28;20336;-77
2023/03/15 06:46:34;;;;;;;0.10;0.10;;;6.70;99.90;;;;;;5097429;28;20043;-77
2023/03/15 06:49:00;;;;;;;0.03;0.03;;;6.30;99.90;;;;;;5116822;28;20027;-77
2023/03/15 06:51:26;;;;;;;0.10;0.10;;;6.40;99.90;;;;;;5118636;28;20057;-77
2023/03/15 06:53:51;;;;;;;0.10;0.10;;;7.00;99.90;;;;;;5121046;28;20031;-77
2023/03/15 06:56:17;;;;;;;0.00;0.00;;;6.40;99.90;;;;;;5121302;28;20024;-77
2023/03/15 06:58:43;;;;;;;0.10;0.10;;;6.40;99.90;;;;;;5115789;28;20298;-77
2023/03/15 07:01:15;;;;;;;0.08;0.08;;;6.40;99.90;;;;;;5087728;28;20043;-77
2023/03/15 07:03:43;;;;;;;0.10;0.10;;;6.40;99.90;;;;;;5105304;28;20038;-76
2023/03/15 07:06:08;;;;;;;0.10;0.10;;;7.50;99.90;;;;;;5086844;28;20526;-76
2023/03/15 07:08:35;;;;;;;0.10;0.10;;;6.50;99.90;;;;;;5105921;28;20130;-77
2023/03/15 07:11:05;;;;;;;0.10;0.10;;;6.50;99.90;;;;;;5106849;28;20471;-77
2023/03/15 07:13:31;;;;;;;0.10;0.10;;;6.40;99.90;;;;;;5110055;28;20058;-77
2023/03/15 07:15:57;;;;;;;0.10;0.10;;;6.40;99.90;;;;;;5091681;28;20391;-77
2023/03/15 07:18:23;;;;;;;0.10;0.10;;;6.40;99.90;;;;;;5106588;28;20099;-77
2023/03/15 07:21:03;;;;;;;0.10;0.10;;;6.40;99.90;;;;;;5114571;28;20063;-77
2023/03/15 07:23:34;;;;;;;0.10;0.10;;;6.40;99.90;;;;;;5114888;28;20053;-77
2023/03/15 07:26:01;;;;;;;0.10;0.10;;;6.50;99.90;;;;;;5095716;28;20047;-77
2023/03/15 07:28:27;;;;;;;0.00;0.00;;;6.60;99.90;;;;;;5110116;28;20084;-77
2023/03/15 07:31:00;;;;;;;0.00;0.00;;;6.70;99.90;;;;;;5113296;28;20038;-77
2023/03/15 07:33:32;;;;;;;0.00;0.00;;;6.80;99.90;;;;;;5090908;28;20666;-77
2023/03/15 07:35:58;;;;;;;0.00;0.00;;;7.00;99.90;;;;;;5084418;28;20039;-77
2023/03/15 07:38:27;;;;;;;0.10;0.10;;;6.90;99.90;;;;;;5102606;28;20023;-77
2023/03/15 07:40:54;;;;;;;0.85;0.85;;;6.90;99.90;;;;;;5084059;28;20032;-77
2023/03/15 07:43:20;;;;;;;0.10;0.10;;;6.80;99.90;;;;;;5101422;28;20046;-76
2023/03/15 07:45:46;;;;;;;0.00;0.00;;;6.90;99.90;;;;;;5100856;28;20032;-76
2023/03/15 07:48:13;;;;;;;0.05;0.05;;;;;;;;;;5100711;28;20425;-76
2023/03/15 07:50:39;;;;;;;0.00;0.00;;;6.90;99.90;;;;;;5100487;28;20035;-76
2023/03/15 07:53:06;;;;;;;0.10;0.10;;;7.00;99.90;;;;;;5100966;28;20019;-77
2023/03/15 07:55:34;;;;;;;0.05;0.05;;;6.80;99.90;;;;;;5083712;28;20038;-77
2023/03/15 07:58:01;;;;;;;0.10;0.10;;;6.70;99.90;;;;;;5101426;28;20362;-77
2023/03/15 08:00:28;;;;;;;0.10;0.10;;;6.60;99.90;;;;;;5101574;28;20039;-76
2023/03/15 08:02:54;;;;;;;0.47;0.47;;;6.60;99.90;;;;;;5098698;28;20039;-76
2023/03/15 08:05:20;;;;;;;0.10;0.10;;;6.50;99.90;;;;;;5108645;28;20509;-76
2023/03/15 08:08:04;;;;;;;0.00;0.00;;;6.50;99.90;;;;;;5121111;28;20379;-75
2023/03/15 08:10:33;;;;;;;0.00;0.00;;;6.50;99.90;;;;;;5118723;28;20510;-77
2023/03/15 08:12:59;;;;;;;0.00;0.00;;;6.60;99.90;;;;;;5122005;28;20027;-76
2023/03/15 08:15:25;;;;;;;0.50;0.50;;;6.60;99.90;;;;;;5121191;28;20034;-77
2023/03/15 08:18:07;;;;;;;0.03;0.03;;;6.70;99.90;;;;;;5117133;28;20023;-77
2023/03/15 08:20:32;;;;;;;0.00;0.00;;;7.30;99.90;;;;;;5108301;28;20039;-76
2023/03/15 08:22:58;;;;;;;0.10;0.10;;;6.70;99.90;;;;;;5107341;28;20020;-77
2023/03/15 08:25:25;;;;;;;0.00;0.00;;;6.70;99.90;;;;;;5110046;28;20097;-77
2023/03/15 08:27:51;;;;;;;0.03;0.03;;;6.00;99.90;;;;;;5101135;28;20036;-77
2023/03/15 08:30:18;;;;;;;0.10;0.10;;;6.50;99.90;;;;;;5101471;28;20043;-77
2023/03/15 08:32:53;;;;;;;0.10;0.10;;;6.60;99.90;;;;;;5102937;28;20509;-77
2023/03/15 08:35:23;;;;;;;0.10;0.10;;;6.70;99.90;;;;;;5109836;28;20045;-76
2023/03/15 08:37:51;;;;;;;0.03;0.03;;;6.60;99.90;;;;;;5104122;28;20024;-77
2023/03/15 08:40:25;;;;;;;0.10;0.10;;;6.80;99.90;;;;;;5103851;28;20232;-76
2023/03/15 08:42:51;;;;;;;;;;;6.80;99.90;;;;;;5087222;28;20020;-76
2023/03/15 08:45:19;;;;;;;0.10;0.10;;;6.90;99.90;;;;;;5087746;28;20133;-77
2023/03/15 08:47:45;;;;;;;3.72;3.60;;;6.90;99.90;;;;;;5086377;28;20498;-77
2023/03/15 08:50:13;;;;;;;0.10;0.10;;;6.10;99.90;;;;;;5085387;28;20596;-77
2023/03/15 08:52:40;;;;;;;0.00;0.00;;;6.80;99.90;;;;;;5102777;28;20045;-76
2023/03/15 08:55:08;;;;;;;0.10;0.10;;;6.80;99.90;;;;;;5103451;28;20015;-77
2023/03/15 08:57:33;;;;;;;0.00;0.00;;;6.80;99.90;;;;;;5102933;28;20034;-76
2023/03/15 09:00:06;;;;;;;0.00;0.00;;;6.60;99.90;;;;;;5103513;28;20028;-76
2023/03/15 09:02:32;;;;;;;0.00;0.00;;;6.60;99.90;;;;;;5105580;28;20027;-76
2023/03/15 09:04:58;;;;;;;0.05;0.05;;;6.60;99.90;;;;;;5106898;28;20450;-77
2023/03/15 09:07:25;;;;;;;0.03;0.03;;;6.30;99.90;;;;;;5107190;28;20575;-76
2023/03/15 09:09:54;;;;;;;0.10;0.10;;;6.50;99.90;;;;;;5090326;28;20132;-76
2023/03/15 09:12:20;;;;;;;0.10;0.10;;;6.50;99.90;;;;;;5090195;28;20107;-76
2023/03/15 09:14:47;;;;;;;0.00;0.00;;;6.50;99.90;;;;;;5110642;28;20655;-77
2023/03/15 09:17:13;;;;;;;0.10;0.10;;;6.50;99.90;;;;;;5108900;28;20024;-76
2023/03/15 09:19:40;;;;;;;0.00;0.00;;;6.50;99.90;;;;;;5107118;28;20105;-76
2023/03/15 09:22:11;;;;;;;0.10;0.10;;;6.40;99.90;;;;;;5086418;28;20020;-76
2023/03/15 09:24:38;;;;;;;0.05;0.05;;;6.40;99.90;;;;;;5104655;28;20432;-77
2023/03/15 09:27:04;;;;;;;0.00;0.00;;;6.40;99.90;;;;;;5106146;28;20525;-77
2023/03/15 09:29:29;;;;;;;0.10;0.10;;;6.30;99.90;;;;;;5087441;28;20115;-76
2023/03/15 09:32:00;;;;;;;0.10;0.10;;;6.20;99.90;;;;;;5087100;28;20072;-77
2023/03/15 09:34:27;;;;;;;0.10;0.10;;;;;;;;;;5085815;28;20039;-77
2023/03/15 09:36:54;;;;;;;0.03;0.03;;;6.00;99.90;;;;;;5104721;28;20016;-77
2023/03/15 09:39:21;;;;;;;0.10;0.10;;;6.10;99.90;;;;;;5085783;28;20316;-77
2023/03/15 09:41:59;;;;;;;0.10;0.10;;;5.90;99.90;;;;;;5104660;28;20578;-77
2023/03/15 09:45:00;;;;;;;0.10;0.10;;;5.90;99.90;;;;;;5105070;28;20745;-77
2023/03/15 09:47:37;;;;;;;0.10;0.10;;;5.90;99.90;;;;;;5107519;28;20024;-76
2023/03/15 09:50:23;;;;;;;0.10;0.10;;;5.90;99.90;;;;;;5089208;28;20073;-76
2023/03/15 09:53:02;;;;;;;0.10;0.10;;;6.00;99.90;;;;;;5115089;28;20460;-76
2023/03/15 09:55:32;;;;;;;0.10;0.10;;;6.00;99.90;;;;;;5097976;28;20289;-76
2023/03/15 09:58:31;;;;;;;0.10;0.10;;;6.10;99.90;;;;;;5097332;28;20024;-77
2023/03/15 10:01:11;;;;;;;0.00;0.00;;;6.00;99.90;;;;;;5112014;28;20035;-77
2023/03/15 10:03:51;;;;;;;0.10;0.10;;;6.80;99.90;;;;;;5119468;28;20015;-76
2023/03/15 10:06:33;;;;;;;0.15;0.15;;;6.20;99.90;;;;;;5112034;28;20039;-76
2023/03/15 10:09:09;;;;;;;0.10;0.10;;;5.70;99.90;;;;;;5104235;28;20710;-77
2023/03/15 10:12:11;;;;;;;0.10;0.10;;;5.70;99.90;;;;;;5104996;28;20330;-77
2023/03/15 10:14:43;;;;;;;0.10;0.10;;;5.80;99.90;;;;;;5103700;28;20038;-77
2023/03/15 10:17:16;;;;;;;0.00;0.00;;;5.80;99.90;;;;;;5104914;28;20019;-77
2023/03/15 10:19:51;;;;;;;0.00;0.00;;;7.50;99.90;;;;;;5106077;28;20038;-76
2023/03/15 10:22:59;;;;;;;0.10;0.10;;;5.80;99.90;;;;;;5120710;28;20015;-76
2023/03/15 10:25:40;;;;;;;0.10;0.10;;;5.70;99.90;;;;;;5037616;28;20028;-76
2023/03/15 10:28:25;;;;;;;0.10;0.10;;;5.70;99.90;;;;;;5033647;28;20025;-76
2023/03/15 10:30:57;;;;;;;0.10;0.10;;;;;;;;;;5015603;28;20037;-76
2023/03/15 10:33:33;;;;;;;0.10;0.10;;;5.50;99.90;;;;;;5030970;28;20026;-77
2023/03/15 10:36:10;;;;;;;0.13;0.13;;;5.40;99.90;;;;;;5031055;28;20119;-76
2023/03/15 10:38:41;;;;;;;0.10;0.10;;;5.50;99.90;;;;;;5032901;28;20071;-76
2023/03/15 10:41:13;;;;;;;0.10;0.10;;;5.50;99.90;;;;;;5020128;28;20033;-77
2023/03/15 10:43:41;;;;;;;0.10;0.10;;;5.50;99.90;;;;;;5029262;28;20025;-77
2023/03/15 10:46:21;;;;;;;0.10;0.10;;;5.50;99.90;;;;;;5003554;28;20455;-77
2023/03/15 10:49:07;;;;;;;0.10;0.10;;;6.00;99.90;;;;;;5019286;28;20084;-76
2023/03/15 10:51:43;;;;;;;0.10;0.10;;;5.60;99.90;;;;;;5020788;28;20195;-76
2023/03/15 10:54:21;;;;;;;0.10;0.10;;;5.70;99.90;;;;;;5003177;28;20018;-77
2023/03/15 10:56:53;;;;;;;0.10;0.10;;;5.70;99.90;;;;;;5020210;28;20109;-77
2023/03/15 10:59:25;;;;;;;0.10;0.10;;;5.80;99.90;;;;;;5044294;28;20027;-77
2023/03/15 11:02:10;;;;;;;0.10;0.10;;;5.90;99.90;;;;;;5105951;28;20205;-76
2023/03/15 11:04:40;;;;;;;0.10;0.10;;;9.20;99.90;;;;;;5104399;28;20028;-76
2023/03/15 11:07:07;;;;;;;0.00;0.00;;;5.80;99.90;;;;;;5104623;28;20051;-76
2023/03/15 11:09:40;;;;;;;0.10;0.10;;;5.90;99.90;;;;;;5085669;28;20054;-77
2023/03/15 11:12:09;;;;;;;0.00;0.00;;;3.60;99.90;;;;;;5103864;28;20580;-76
2023/03/15 11:14:42;;;;;;;0.05;0.05;;;6.00;99.90;;;;;;5103936;28;20085;-76
2023/03/15 11:17:16;;;;;;;0.10;0.10;;;5.90;99.90;;;;;;5105461;28;20105;-76
2023/03/15 11:19:52;;;;;;;0.10;0.10;;;6.30;99.90;;;;;;5103132;28;20214;-76
2023/03/15 11:22:18;;;;;;;0.10;0.10;;;6.00;99.90;;;;;;5104905;28;20028;-76
2023/03/15 11:24:44;;;;;;;0.10;0.10;;;6.00;99.90;;;;;;5102897;28;20026;-76
2023/03/15 11:27:13;;;;;;;0.10;0.10;;;6.00;99.90;;;;;;5103985;28;20020;-76
2023/03/15 11:29:53;;;;;;;0.10;0.10;;;5.90;99.90;;;;;;5105390;28;20024;-76
2023/03/15 11:32:28;;;;;;;0.10;0.10;;;5.90;99.90;;;;;;5085273;28;20417;-77
2023/03/15 11:35:11;;;;;;;0.10;0.10;;;5.90;99.90;;;;;;5105969;28;20036;-76
2023/03/15 11:37:50;;;;;;;0.08;0.08;;;6.00;99.90;;;;;;5105886;28;20027;-76
2023/03/15 11:40:39;;;;;;;0.10;0.10;;;6.00;99.90;;;;;;5103593;28;20024;-76
2023/03/15 11:43:24;;;;;;;0.10;0.10;;;6.00;99.90;;;;;;5106241;28;20050;-76
2023/03/15 11:45:58;;;;;;;0.05;0.05;;;5.90;99.90;;;;;;5084528;28;20028;-77
2023/03/15 11:48:45;;;;;;;0.10;0.10;;;6.00;99.90;;;;;;5084836;28;20027;-77
2023/03/15 11:51:12;;;;;;;0.10;0.10;;;6.00;99.90;;;;;;5103581;28;20301;-76
2023/03/15 11:53:47;;;;;;;0.00;0.00;;;6.10;99.90;;;;;;5101808;28;20323;-76
2023/03/15 11:56:19;;;;;;;0.10;0.10;;;6.10;99.90;;;;;;5101880;28;20032;-76
2023/03/15 11:59:07;;;;;;;0.10;0.10;;;5.90;99.90;;;;;;5102563;28;20324;-76
2023/03/15 12:01:34;;;;;;;0.10;0.10;;;5.80;99.90;;;;;;5102575;28;20532;-76
2023/03/15 12:04:42;;;;;;;0.10;0.10;;;6.00;99.90;;;;;;5103504;28;20031;-77
2023/03/15 12:07:14;;;;;;;0.10;0.10;;;5.80;99.90;;;;;;5021156;28;20042;-76
2023/03/15 12:10:16;;;;;;;0.10;0.10;;;5.60;99.90;;;;;;5019256;28;20129;-76
2023/03/15 12:12:47;;;;;;;0.10;0.10;;;5.30;99.90;;;;;;5002727;28;20327;-76
2023/03/15 12:15:18;;;;;;;0.10;0.10;;;5.40;99.90;;;;;;5021584;28;20045;-76
2023/03/15 12:17:58;;;;;;;0.10;0.10;;;5.40;99.90;;;;;;5002172;28;20591;-76
2023/03/15 12:20:37;;;;;;;0.10;0.10;;;5.40;99.90;;;;;;5020081;28;20103;-76
2023/03/15 12:23:31;;;;;;;0.10;0.10;;;5.40;99.90;;;;;;5004900;28;20065;-76
2023/03/15 12:26:13;;;;;;;0.20;0.20;;;5.40;99.90;;;;;;5021594;28;20111;-76
2023/03/15 12:29:06;;;;;;;0.10;0.10;;;5.50;99.90;;;;;;5019723;28;20034;-76
2023/03/15 12:32:10;;;;;;;0.10;0.10;;;5.40;99.90;;;;;;4960892;28;20031;-76
2023/03/15 12:34:36;;;;;;;0.08;0.08;;;5.40;99.90;;;;;;4940259;29;20123;-76
2023/03/15 12:37:22;;;;;;;0.10;0.10;;;5.40;99.90;;;;;;4941542;28;20127;-76
2023/03/15 12:40:00;;;;;;;0.00;0.00;;;5.50;99.90;;;;;;4943110;29;20078;-75
2023/03/15 12:42:51;;;;;;;0.10;0.10;;;5.40;99.90;;;;;;4926021;28;20027;-76
2023/03/15 12:45:17;;;;;;;0.10;0.10;;;5.40;99.90;;;;;;4943577;28;20039;-76
2023/03/15 12:48:05;;;;;;;0.10;0.10;;;5.40;99.90;;;;;;4946494;28;20094;-76
2023/03/15 12:50:43;;;;;;;2.40;2.30;;;5.40;99.90;;;;;;4934267;29;20078;-77
2023/03/15 12:53:40;;;;;;;0.10;0.10;;;5.40;99.90;;;;;;4952046;29;20023;-76
2023/03/15 12:56:18;;;;;;;0.10;0.10;;;5.40;99.90;;;;;;4949320;28;20573;-76
2023/03/15 12:58:47;;;;;;;0.00;0.00;;;7.40;99.90;;;;;;4945649;28;20031;-76
2023/03/15 13:01:16;;;;;;;0.10;0.10;;;5.50;99.90;;;;;;4945695;28;20213;-76
2023/03/15 13:03:43;;;;;;;0.10;0.10;;;5.50;99.90;;;;;;4943267;29;20348;-76
2023/03/15 13:06:46;;;;;;;0.10;0.10;;;5.50;99.90;;;;;;4941947;28;20106;-76
2023/03/15 13:09:20;;;;;;;0.10;0.10;;;5.60;99.90;;;;;;4983464;28;20038;-76
2023/03/15 13:12:09;;;;;;;0.10;0.10;;;5.50;99.90;;;;;;5024620;28;20535;-76
2023/03/15 13:14:54;;;;;;;0.00;0.00;;;5.40;99.90;;;;;;5046641;28;20017;-76
2023/03/15 13:17:30;;;;;;;0.15;0.15;;;5.60;99.90;;;;;;5042900;28;20044;-76
2023/03/15 13:20:19;;;;;;;0.00;0.00;;;5.50;99.90;;;;;;5031406;28;20120;-76
2023/03/15 13:23:13;;;;;;;0.10;0.10;;;5.50;99.90;;;;;;5075906;28;20275;-76
2023/03/15 13:25:51;;;;;;;0.00;0.00;;;5.40;99.90;;;;;;5110879;28;20328;-76